Time;durP1;ratioP1;P1;durP2;ratioP2;P2;SDS_P1;SDS_P2;PMS_P1;PMS_P2;Temp;Humidity;BMP_temperature;BMP_pressure;BME280_temperature;BME280_humidity;BME280_pressure;Samples;Min_cycle;Max_cycle;Signal;HPM_P1;HPM_P2
2021/01/29 00:00:15;;;;;;;;;;;4.90;88.60;;;;;;5072845;28;19936;-71
2021/01/29 00:02:41;;;;;;;;;;;4.80;88.70;;;;;;5072095;28;20011;-70
2021/01/29 00:05:11;;;;;;;;;;;4.80;89.10;;;;;;5072956;28;20015;-71
2021/01/29 00:07:38;;;;;;;;;;;4.90;89.20;;;;;;5072401;28;19990;-71
2021/01/29 00:10:05;;;;;;;;;;;4.90;89.20;;;;;;5072717;28;19946;-71
2021/01/29 00:12:31;;;;;;;;;;;4.90;89.50;;;;;;5072406;28;20058;-71
2021/01/29 00:14:57;;;;;;;;;;;4.90;89.50;;;;;;5064407;28;20086;-70
2021/01/29 00:17:23;;;;;;;;;;;4.90;89.20;;;;;;5072169;28;20003;-71
2021/01/29 00:19:49;;;;;;;;;;;4.90;89.20;;;;;;5067719;28;19925;-70
2021/01/29 00:22:17;;;;;;;;;;;4.90;88.90;;;;;;5072622;28;20434;-70
2021/01/29 00:24:43;;;;;;;;;;;4.80;89.20;;;;;;5072518;28;20015;-70
2021/01/29 00:27:09;;;;;;;;;;;4.90;89.30;;;;;;5072660;28;19928;-70
2021/01/29 00:29:35;;;;;;;;;;;4.90;88.70;;;;;;5068834;28;20129;-70
2021/01/29 00:32:05;;;;;;;;;;;4.80;88.60;;;;;;5072073;28;19924;-70
2021/01/29 00:34:32;;;;;;;;;;;4.80;89.00;;;;;;5077227;28;19925;-70
2021/01/29 00:36:58;;;;;;;;;;;4.90;89.20;;;;;;5072445;28;20389;-70
2021/01/29 00:39:25;;;;;;;;;;;4.80;89.50;;;;;;5072181;28;19931;-70
2021/01/29 00:41:51;;;;;;;;;;;4.90;89.10;;;;;;5072612;28;19993;-70
2021/01/29 00:44:17;;;;;;;;;;;4.80;88.80;;;;;;5072479;28;20008;-70
2021/01/29 00:46:44;;;;;;;;;;;4.80;89.30;;;;;;5059746;28;19931;-70
2021/01/29 00:49:10;;;;;;;;;;;4.80;89.70;;;;;;5072394;28;20354;-70
2021/01/29 00:51:36;;;;;;;;;;;4.90;89.60;;;;;;5066779;28;19928;-70
2021/01/29 00:54:03;;;;;;;;;;;4.90;89.00;;;;;;5074685;28;20008;-70
2021/01/29 00:56:30;;;;;;;;;;;4.80;89.40;;;;;;5075766;28;19934;-71
2021/01/29 00:58:56;;;;;;;;;;;4.90;89.70;;;;;;5076349;28;20042;-71
2021/01/29 01:01:22;;;;;;;;;;;4.90;89.70;;;;;;5075754;28;19999;-70
2021/01/29 01:03:49;;;;;;;;;;;4.90;89.30;;;;;;5076186;28;19935;-70
2021/01/29 01:06:15;;;;;;;;;;;4.80;89.30;;;;;;5072772;28;24710;-71
2021/01/29 01:08:41;;;;;;;;;;;4.90;89.10;;;;;;5075270;28;22530;-70
2021/01/29 01:11:07;;;;;;;;;;;4.80;89.70;;;;;;5075484;28;20434;-70
2021/01/29 01:13:34;;;;;;;;;;;4.80;89.60;;;;;;5075131;28;19943;-70
2021/01/29 01:16:01;;;;;;;;;;;4.90;89.50;;;;;;5073288;28;19929;-71
2021/01/29 01:18:27;;;;;;;;;;;4.80;89.50;;;;;;5069748;28;20434;-70
2021/01/29 01:20:53;;;;;;;;;;;4.80;89.30;;;;;;5065166;28;20288;-70
2021/01/29 01:23:19;;;;;;;;;;;4.90;89.70;;;;;;5075288;28;19969;-70
2021/01/29 01:25:45;;;;;;;;;;;4.90;89.40;;;;;;5069029;28;19924;-70
2021/01/29 01:28:12;;;;;;;;;;;4.90;89.00;;;;;;5075433;28;19935;-71
2021/01/29 01:30:40;;;;;;;;;;;4.90;89.40;;;;;;5067759;28;19960;-70
2021/01/29 01:33:07;;;;;;;;;;;4.90;89.30;;;;;;5077998;28;19933;-70
2021/01/29 01:35:33;;;;;;;;;;;4.80;89.70;;;;;;5074703;28;19975;-70
2021/01/29 01:37:59;;;;;;;;;;;4.90;89.40;;;;;;5073222;28;20007;-70
2021/01/29 01:40:27;;;;;;;;;;;4.80;89.40;;;;;;5074785;28;20291;-70
2021/01/29 01:42:53;;;;;;;;;;;4.80;89.70;;;;;;5075401;28;20047;-70
2021/01/29 01:45:34;;;;;;;;;;;4.80;89.50;;;;;;5074779;28;20014;-70
2021/01/29 01:48:03;;;;;;;;;;;4.80;89.30;;;;;;5075340;28;20015;-70
2021/01/29 01:50:31;;;;;;;;;;;4.90;89.30;;;;;;5074591;28;20182;-70
2021/01/29 01:52:58;;;;;;;;;;;4.80;89.40;;;;;;5073329;28;19932;-70
2021/01/29 01:55:25;;;;;;;;;;;4.80;90.00;;;;;;5073584;28;19924;-70
2021/01/29 01:57:53;;;;;;;;;;;4.80;89.60;;;;;;5074926;28;20023;-70
2021/01/29 02:00:21;;;;;;;;;;;4.70;89.80;;;;;;5071621;28;19924;-70
2021/01/29 02:02:49;;;;;;;;;;;4.80;90.00;;;;;;5071043;28;19932;-70
2021/01/29 02:05:19;;;;;;;;;;;4.70;89.40;;;;;;5072947;28;19963;-71
2021/01/29 02:07:48;;;;;;;;;;;4.80;89.80;;;;;;5065546;28;20003;-70
2021/01/29 02:10:14;;;;;;;;;;;4.80;89.70;;;;;;5069938;28;20019;-70
2021/01/29 02:12:40;;;;;;;;;;;4.80;89.50;;;;;;5071676;28;19924;-70
2021/01/29 02:15:07;;;;;;;;;;;4.80;89.70;;;;;;5066088;28;20007;-71
2021/01/29 02:17:42;;;;;;;;;;;4.80;89.20;;;;;;5074771;28;20323;-70
2021/01/29 02:20:20;;;;;;;;;;;4.80;89.30;;;;;;5074027;28;20354;-71
2021/01/29 02:23:13;;;;;;;;;;;4.80;89.70;;;;;;5071406;28;20007;-70
2021/01/29 02:26:01;;;;;;;;;;;4.80;89.70;;;;;;5035417;28;20376;-70
2021/01/29 02:28:34;;;;;;;;;;;4.80;89.70;;;;;;5067868;28;20342;-70
2021/01/29 02:31:09;;;;;;;;;;;4.90;89.40;;;;;;5073926;28;19928;-70
2021/01/29 02:33:53;;;;;;;;;;;4.90;89.00;;;;;;5079633;28;21476;-70
2021/01/29 02:36:43;;;;;;;;;;;5.00;89.10;;;;;;5073713;28;20034;-70
2021/01/29 02:39:35;;;;;;;;;;;4.90;89.10;;;;;;5074016;28;20395;-70
2021/01/29 02:42:04;;;;;;;;;;;4.90;89.30;;;;;;5072060;28;20410;-70
2021/01/29 02:44:41;;;;;;;;;;;4.90;89.60;;;;;;5070918;28;20003;-70
2021/01/29 02:47:09;;;;;;;;;;;4.90;89.60;;;;;;5067252;28;19928;-71
2021/01/29 02:49:40;;;;;;;;;;;5.00;89.60;;;;;;5073729;28;19932;-71
2021/01/29 02:52:13;;;;;;;;;;;5.00;88.90;;;;;;5073493;28;19928;-70
2021/01/29 02:54:45;;;;;;;;;;;5.00;89.10;;;;;;5073869;28;19924;-70
2021/01/29 02:57:17;;;;;;;;;;;5.00;89.40;;;;;;5073361;28;20003;-71
2021/01/29 02:59:46;;;;;;;;;;;5.00;89.50;;;;;;5073639;28;20442;-70
2021/01/29 03:02:15;;;;;;;;;;;5.00;89.60;;;;;;5065550;28;19928;-70
2021/01/29 03:04:47;;;;;;;;;;;5.00;89.30;;;;;;5073598;28;20038;-70
2021/01/29 03:07:15;;;;;;;;;;;5.00;89.20;;;;;;5073087;28;19946;-70
2021/01/29 03:09:47;;;;;;;;;;;5.00;89.30;;;;;;5073461;28;19925;-70
2021/01/29 03:12:14;;;;;;;;;;;5.00;89.30;;;;;;5072592;28;20008;-70
2021/01/29 03:14:42;;;;;;;;;;;5.00;89.50;;;;;;5069225;28;20012;-70
2021/01/29 03:17:11;;;;;;;;;;;5.00;89.70;;;;;;5072783;28;20011;-70
2021/01/29 03:19:40;;;;;;;;;;;5.00;89.60;;;;;;5072600;28;19936;-70
2021/01/29 03:22:09;;;;;;;;;;;5.10;89.50;;;;;;5072278;28;19998;-70
2021/01/29 03:24:38;;;;;;;;;;;5.10;88.90;;;;;;5072940;28;20023;-71
2021/01/29 03:27:09;;;;;;;;;;;5.00;89.10;;;;;;5072218;28;19924;-70
2021/01/29 03:29:37;;;;;;;;;;;5.00;89.30;;;;;;5073200;28;19934;-70
2021/01/29 03:32:05;;;;;;;;;;;5.00;89.60;;;;;;5072968;28;19924;-70
2021/01/29 03:34:35;;;;;;;;;;;5.00;89.70;;;;;;5073618;28;19928;-71
2021/01/29 03:37:04;;;;;;;;;;;4.90;89.70;;;;;;5073084;28;20023;-70
2021/01/29 03:39:32;;;;;;;;;;;4.90;89.80;;;;;;5073330;28;19935;-70
2021/01/29 03:42:02;;;;;;;;;;;5.00;89.90;;;;;;5073286;28;20011;-70
2021/01/29 03:44:35;;;;;;;;;;;5.00;89.70;;;;;;5059075;28;20038;-71
2021/01/29 03:47:03;;;;;;;;;;;5.00;89.40;;;;;;5067694;28;20307;-71
2021/01/29 03:49:37;;;;;;;;;;;5.00;89.20;;;;;;5072985;28;19934;-70
2021/01/29 03:52:07;;;;;;;;;;;5.00;89.00;;;;;;5073206;28;20003;-70
2021/01/29 03:54:36;;;;;;;;;;;5.00;88.90;;;;;;5071964;28;20735;-70
2021/01/29 03:57:11;;;;;;;;;;;4.90;89.00;;;;;;5051397;28;20201;-70
2021/01/29 03:59:41;;;;;;;;;;;4.90;89.20;;;;;;5050753;28;19929;-71
2021/01/29 04:02:12;;;;;;;;;;;5.00;89.20;;;;;;5053128;28;20011;-70
2021/01/29 04:04:44;;;;;;;;;;;5.00;89.20;;;;;;5053139;28;20024;-71
2021/01/29 04:07:14;;;;;;;;;;;5.00;89.10;;;;;;5053157;28;20011;-70
2021/01/29 04:09:46;;;;;;;;;;;5.00;89.30;;;;;;5053071;28;20031;-70
2021/01/29 04:12:14;;;;;;;;;;;5.00;89.20;;;;;;5053240;28;19936;-70
2021/01/29 04:14:44;;;;;;;;;;;5.00;88.80;;;;;;5052727;28;19935;-70
2021/01/29 04:17:13;;;;;;;;;;;5.00;88.80;;;;;;5052988;28;20000;-70
2021/01/29 04:19:41;;;;;;;;;;;5.00;89.10;;;;;;5052713;28;19933;-70
2021/01/29 04:22:11;;;;;;;;;;;5.00;89.10;;;;;;5052874;28;19928;-70
2021/01/29 04:24:39;;;;;;;;;;;5.00;89.10;;;;;;5052592;28;20385;-70
2021/01/29 04:27:08;;;;;;;;;;;5.00;88.80;;;;;;5052479;28;19924;-70
2021/01/29 04:29:36;;;;;;;;;;;5.00;88.60;;;;;;5051854;28;20015;-70
2021/01/29 04:32:05;;;;;;;;;;;5.00;88.80;;;;;;5052872;28;19932;-70
2021/01/29 04:34:33;;;;;;;;;;;5.00;89.00;;;;;;5052682;28;19931;-70
2021/01/29 04:37:03;;;;;;;;;;;5.00;89.10;;;;;;5052779;28;19939;-70
2021/01/29 04:39:31;;;;;;;;;;;5.00;88.90;;;;;;5052292;28;19978;-70
2021/01/29 04:42:04;;;;;;;;;;;5.00;89.10;;;;;;5053023;28;19925;-71
2021/01/29 04:44:44;;;;;;;;;;;5.00;89.40;;;;;;5052317;28;19931;-71
2021/01/29 04:47:15;;;;;;;;;;;5.00;89.60;;;;;;5052662;28;19931;-71
2021/01/29 04:49:48;;;;;;;;;;;5.00;90.00;;;;;;5052270;28;19951;-71
2021/01/29 04:52:34;;;;;;;;;;;5.00;89.00;;;;;;5052708;28;20012;-71
2021/01/29 04:55:12;;;;;;;;;;;5.00;89.10;;;;;;5052954;28;20016;-71
2021/01/29 04:57:47;;;;;;;;;;;4.90;89.00;;;;;;5052889;28;19935;-71
2021/01/29 05:00:27;;;;;;;;;;;4.90;88.80;;;;;;5052116;28;19925;-71
2021/01/29 05:03:08;;;;;;;;;;;4.90;88.50;;;;;;5052808;28;19979;-71
2021/01/29 05:05:45;;;;;;;;;;;4.90;88.40;;;;;;5052357;28;20098;-71
2021/01/29 05:08:29;;;;;;;;;;;4.90;88.50;;;;;;5052308;28;20051;-71
2021/01/29 05:11:02;;;;;;;;;;;4.90;88.60;;;;;;5052394;28;19948;-71
2021/01/29 05:13:47;;;;;;;;;;;4.90;88.70;;;;;;5052374;28;20319;-71
2021/01/29 05:16:30;;;;;;;;;;;4.90;88.60;;;;;;5052129;28;19925;-71
2021/01/29 05:19:07;;;;;;;;;;;4.90;88.40;;;;;;5052655;28;19977;-70
2021/01/29 05:21:45;;;;;;;;;;;4.90;88.10;;;;;;5052011;28;20019;-70
2021/01/29 05:24:27;;;;;;;;;;;4.80;88.00;;;;;;5052074;28;19924;-70
2021/01/29 05:27:14;;;;;;;;;;;4.80;88.20;;;;;;5049840;28;19925;-70
2021/01/29 05:29:44;;;;;;;;;;;4.80;87.80;;;;;;5047129;28;19955;-70
2021/01/29 05:32:21;;;;;;;;;;;4.70;87.50;;;;;;5052411;28;20016;-70
2021/01/29 05:35:02;;;;;;;;;;;4.70;88.00;;;;;;5052326;28;20121;-71
2021/01/29 05:37:41;;;;;;;;;;;4.70;88.00;;;;;;5049261;28;19927;-71
2021/01/29 05:40:16;;;;;;;;;;;4.70;87.90;;;;;;5054620;28;20270;-70
2021/01/29 05:42:54;;;;;;;;;;;4.60;87.30;;;;;;5055453;28;19924;-71
2021/01/29 05:45:45;;;;;;;;;;;4.70;87.60;;;;;;5055703;28;20011;-70
2021/01/29 05:48:27;;;;;;;;;;;4.60;87.90;;;;;;5055863;28;19929;-71
2021/01/29 05:51:04;;;;;;;;;;;4.60;88.00;;;;;;5055472;28;20004;-70
2021/01/29 05:53:49;;;;;;;;;;;4.60;88.30;;;;;;5055598;28;20452;-70
2021/01/29 05:56:22;;;;;;;;;;;4.60;88.10;;;;;;5055002;28;20334;-70
2021/01/29 05:59:07;;;;;;;;;;;4.50;88.30;;;;;;5055662;28;20011;-70
2021/01/29 06:01:42;;;;;;;;;;;4.50;88.40;;;;;;5055342;28;20582;-70
2021/01/29 06:04:26;;;;;;;;;;;4.50;88.50;;;;;;5055105;28;20008;-70
2021/01/29 06:06:55;;;;;;;;;;;4.50;88.60;;;;;;5055279;28;20012;-70
2021/01/29 06:09:40;;;;;;;;;;;4.50;88.60;;;;;;5054950;28;19928;-70
2021/01/29 06:12:14;;;;;;;;;;;4.50;88.20;;;;;;5055556;28;19981;-70
2021/01/29 06:14:55;;;;;;;;;;;4.50;88.60;;;;;;5055252;28;20744;-70
2021/01/29 06:17:37;;;;;;;;;;;4.50;89.20;;;;;;5054795;28;19925;-70
2021/01/29 06:20:13;;;;;;;;;;;4.50;88.40;;;;;;5055286;28;19999;-70
2021/01/29 06:22:57;;;;;;;;;;;4.60;88.30;;;;;;5054803;28;20024;-70
2021/01/29 06:25:46;;;;;;;;;;;4.60;88.30;;;;;;5054499;28;20019;-70
2021/01/29 06:28:20;;;;;;;;;;;4.60;88.00;;;;;;5055182;28;20337;-70
2021/01/29 06:31:00;;;;;;;;;;;4.60;88.00;;;;;;5054787;28;20354;-70
2021/01/29 06:33:50;;;;;;;;;;;4.60;87.90;;;;;;5054483;28;20000;-70
2021/01/29 06:36:24;;;;;;;;;;;4.60;87.40;;;;;;5039556;28;19935;-70
2021/01/29 06:38:56;;;;;;;;;;;4.70;87.70;;;;;;5054664;28;20024;-70
2021/01/29 06:41:43;;;;;;;;;;;4.60;87.70;;;;;;5054945;28;20325;-70
2021/01/29 06:44:13;;;;;;;;;;;4.70;87.90;;;;;;5054979;28;20282;-71
2021/01/29 06:46:46;;;;;;;;;;;4.60;88.30;;;;;;5054494;28;19925;-70
2021/01/29 06:49:31;;;;;;;;;;;4.70;88.40;;;;;;5054057;28;19999;-70
2021/01/29 06:52:17;;;;;;;;;;;4.70;88.70;;;;;;5053672;28;20006;-70
2021/01/29 06:54:54;;;;;;;;;;;4.70;87.90;;;;;;5055066;28;20016;-71
2021/01/29 06:57:28;;;;;;;;;;;4.70;87.80;;;;;;5054208;28;20321;-71
2021/01/29 07:00:01;;;;;;;;;;;4.70;87.40;;;;;;5054460;28;20178;-70
2021/01/29 07:02:54;;;;;;;;;;;4.70;87.70;;;;;;5054248;28;19971;-70
2021/01/29 07:05:28;;;;;;;;;;;4.70;87.90;;;;;;5054002;28;20322;-70
2021/01/29 07:07:58;;;;;;;;;;;4.70;88.10;;;;;;5054358;28;19929;-70
2021/01/29 07:10:39;;;;;;;;;;;4.70;88.00;;;;;;5053662;28;20008;-70
2021/01/29 07:13:11;;;;;;;;;;;4.70;87.80;;;;;;5041209;28;19999;-70
2021/01/29 07:15:48;;;;;;;;;;;4.70;88.10;;;;;;5054126;28;20359;-70
2021/01/29 07:18:27;;;;;;;;;;;4.60;87.30;;;;;;5053679;28;20446;-70
2021/01/29 07:21:00;;;;;;;;;;;4.70;87.60;;;;;;5053904;28;19956;-70
2021/01/29 07:23:34;;;;;;;;;;;4.70;86.70;;;;;;5053573;28;20015;-71
2021/01/29 07:26:21;;;;;;;;;;;4.60;86.90;;;;;;5053932;28;20011;-70
2021/01/29 07:28:57;;;;;;;;;;;4.60;87.20;;;;;;5048960;28;19935;-70
2021/01/29 07:31:37;;;;;;;;;;;4.60;87.10;;;;;;5053782;28;20012;-70
2021/01/29 07:34:07;;;;;;;;;;;4.60;87.20;;;;;;5053548;28;19947;-70
2021/01/29 07:36:45;;;;;;;;;;;4.60;86.90;;;;;;5053652;28;20016;-70
2021/01/29 07:39:23;;;;;;;;;;;4.50;86.80;;;;;;5053337;28;20091;-70
2021/01/29 07:41:57;;;;;;;;;;;4.50;86.80;;;;;;5053181;28;19925;-70
2021/01/29 07:44:30;;;;;;;;;;;4.40;86.90;;;;;;5053668;28;19985;-71
2021/01/29 07:47:12;;;;;;;;;;;4.30;87.00;;;;;;5052902;28;19944;-70
2021/01/29 07:49:50;;;;;;;;;;;4.30;87.10;;;;;;5053334;28;19982;-70
2021/01/29 07:52:24;;;;;;;;;;;4.20;87.60;;;;;;5053179;28;19932;-70
2021/01/29 07:55:00;;;;;;;;;;;4.20;88.00;;;;;;5053559;28;19936;-70
2021/01/29 07:57:54;;;;;;;;;;;4.30;88.70;;;;;;5053834;28;19924;-70
2021/01/29 08:00:24;;;;;;;;;;;4.30;88.50;;;;;;5053120;28;19935;-70
2021/01/29 08:03:04;;;;;;;;;;;4.40;88.10;;;;;;5053368;28;19924;-71
2021/01/29 08:05:32;;;;;;;;;;;4.40;87.90;;;;;;5052880;28;19924;-70
2021/01/29 08:08:02;;;;;;;;;;;4.50;87.90;;;;;;5053289;28;20007;-70
2021/01/29 08:10:30;;;;;;;;;;;4.50;87.90;;;;;;5052776;28;20251;-70
2021/01/29 08:13:01;;;;;;;;;;;4.60;87.30;;;;;;5053238;28;20007;-71
2021/01/29 08:15:29;;;;;;;;;;;4.60;87.00;;;;;;5052568;28;20012;-71
2021/01/29 08:18:07;;;;;;;;;;;4.60;86.70;;;;;;5053066;28;19929;-71
2021/01/29 08:20:42;;;;;;;;;;;4.60;85.60;;;;;;5052653;28;19925;-71
2021/01/29 08:23:12;;;;;;;;;;;4.50;85.60;;;;;;5053142;28;19934;-71
2021/01/29 08:25:55;;;;;;;;;;;4.60;86.10;;;;;;5052365;28;20066;-71
2021/01/29 08:28:37;;;;;;;;;;;4.60;86.70;;;;;;5052629;28;20330;-71
2021/01/29 08:31:21;;;;;;;;;;;4.50;85.80;;;;;;5052869;28;20386;-71
2021/01/29 08:34:11;;;;;;;;;;;4.40;85.60;;;;;;5052764;28;20089;-71
2021/01/29 08:36:44;;;;;;;;;;;4.30;86.60;;;;;;5052436;28;20325;-71
2021/01/29 08:39:16;;;;;;;;;;;4.40;87.20;;;;;;5052911;28;19928;-70
2021/01/29 08:41:53;;;;;;;;;;;4.40;87.00;;;;;;5052593;28;20431;-70
2021/01/29 08:44:24;;;;;;;;;;;4.50;86.80;;;;;;5052788;28;20355;-70
2021/01/29 08:47:08;;;;;;;;;;;4.40;85.90;;;;;;5052527;28;19925;-70
2021/01/29 08:49:59;;;;;;;;;;;4.40;86.10;;;;;;5052108;28;20035;-70
2021/01/29 08:52:33;;;;;;;;;;;4.60;86.70;;;;;;5037464;28;19925;-72
2021/01/29 08:55:07;;;;;;;;;;;4.60;86.30;;;;;;5052639;28;20432;-69
2021/01/29 08:57:41;;;;;;;;;;;4.70;85.80;;;;;;5052815;28;19933;-71
2021/01/29 09:00:11;;;;;;;;;;;4.60;85.30;;;;;;5052375;28;20028;-71
2021/01/29 09:02:43;;;;;;;;;;;4.60;85.40;;;;;;5052722;28;20010;-71
2021/01/29 09:05:11;;;;;;;;;;;4.60;85.50;;;;;;5052583;28;20027;-71
2021/01/29 09:07:39;;;;;;;;;;;4.50;85.70;;;;;;5052845;28;19928;-71
2021/01/29 09:10:08;;;;;;;;;;;4.50;86.10;;;;;;5052089;28;19993;-71
2021/01/29 09:12:36;;;;;;;;;;;4.60;86.70;;;;;;5052656;28;20007;-69
2021/01/29 09:15:05;;;;;;;;;;;4.60;86.70;;;;;;5054445;28;20296;-71
2021/01/29 09:17:36;;;;;;;;;;;4.60;86.60;;;;;;5056191;28;20007;-72
2021/01/29 09:20:05;;;;;;;;;;;4.60;86.30;;;;;;5055784;28;19925;-70
2021/01/29 09:22:35;;;;;;;;;;;4.60;87.10;;;;;;5056321;28;20024;-72
2021/01/29 09:25:06;;;;;;;;;;;4.60;86.80;;;;;;5055875;28;20011;-70
2021/01/29 09:27:50;;;;;;;;;;;4.60;87.10;;;;;;5056090;28;19956;-70
2021/01/29 09:30:22;;;;;;;;;;;4.60;86.20;;;;;;5055682;28;20007;-70
2021/01/29 09:32:53;;;;;;;;;;;4.60;86.20;;;;;;5056149;28;19935;-70
2021/01/29 09:35:24;;;;;;;;;;;4.60;86.40;;;;;;5055738;28;20023;-70
2021/01/29 09:37:54;;;;;;;;;;;4.60;85.80;;;;;;5055981;28;20035;-70
2021/01/29 09:40:25;;;;;;;;;;;4.50;85.80;;;;;;5055466;28;19956;-70
2021/01/29 09:42:56;;;;;;;;;;;4.60;86.40;;;;;;5055987;28;19936;-70
2021/01/29 09:45:24;;;;;;;;;;;4.70;86.70;;;;;;5055595;28;20664;-70
2021/01/29 09:47:57;;;;;;;;;;;4.80;86.80;;;;;;5055863;28;20469;-70
2021/01/29 09:50:24;;;;;;;;;;;4.80;86.50;;;;;;5055356;28;20007;-70
2021/01/29 09:52:57;;;;;;;;;;;4.90;85.80;;;;;;5055850;28;19925;-70
2021/01/29 09:55:27;;;;;;;;;;;4.80;85.20;;;;;;5055169;28;19925;-70
2021/01/29 09:57:59;;;;;;;;;;;4.80;84.70;;;;;;5055582;28;20008;-70
2021/01/29 10:00:27;;;;;;;;;;;4.70;85.20;;;;;;5055267;28;19932;-70
2021/01/29 10:02:56;;;;;;;;;;;4.70;85.70;;;;;;5055612;28;20011;-70
2021/01/29 10:05:27;;;;;;;;;;;4.70;86.30;;;;;;5054943;28;19959;-70
2021/01/29 10:08:06;;;;;;;;;;;4.70;85.60;;;;;;5055589;28;20003;-70
2021/01/29 10:10:48;;;;;;;;;;;4.70;85.40;;;;;;5055218;28;20747;-70
2021/01/29 10:13:19;;;;;;;;;;;4.60;85.10;;;;;;5054948;28;19924;-70
2021/01/29 10:16:05;;;;;;;;;;;4.70;85.60;;;;;;5055100;28;19932;-71
2021/01/29 10:18:33;;;;;;;;;;;4.70;85.70;;;;;;5054835;28;20015;-70
2021/01/29 10:21:05;;;;;;;;;;;4.70;86.10;;;;;;5055219;28;19939;-71
2021/01/29 10:23:37;;;;;;;;;;;4.70;86.10;;;;;;5054859;28;20354;-72
2021/01/29 10:26:10;;;;;;;;;;;4.80;86.30;;;;;;5053814;28;20011;-71
2021/01/29 10:28:47;;;;;;;;;;;4.90;85.90;;;;;;5054759;28;19928;-72
2021/01/29 10:31:14;;;;;;;;;;;4.90;85.20;;;;;;5054443;28;19925;-72
2021/01/29 10:33:44;;;;;;;;;;;5.00;84.50;;;;;;5055048;28;19925;-71
2021/01/29 10:36:12;;;;;;;;;;;4.90;83.50;;;;;;5054809;28;19972;-71
2021/01/29 10:38:41;;;;;;;;;;;5.00;83.40;;;;;;5054548;28;20023;-69
2021/01/29 10:41:12;;;;;;;;;;;5.10;83.40;;;;;;5054784;28;19932;-69
2021/01/29 10:43:42;;;;;;;;;;;5.20;83.10;;;;;;5054306;28;20378;-71
2021/01/29 10:46:33;;;;;;;;;;;5.10;82.20;;;;;;5054450;28;20037;-69
2021/01/29 10:49:05;;;;;;;;;;;5.20;82.50;;;;;;5054513;28;19929;-69
2021/01/29 10:51:36;;;;;;;;;;;5.30;82.50;;;;;;5054700;28;20003;-69
2021/01/29 10:54:04;;;;;;;;;;;5.40;82.40;;;;;;5054219;28;20324;-69
2021/01/29 10:56:39;;;;;;;;;;;5.40;82.60;;;;;;5054505;28;19935;-70
2021/01/29 10:59:10;;;;;;;;;;;5.50;81.70;;;;;;5053933;28;20027;-69
2021/01/29 11:01:38;;;;;;;;;;;5.60;81.10;;;;;;5054307;28;20023;-69
2021/01/29 11:04:07;;;;;;;;;;;5.60;81.40;;;;;;5053836;28;19931;-69
2021/01/29 11:06:39;;;;;;;;;;;5.70;81.20;;;;;;5053225;28;19925;-69
2021/01/29 11:09:06;;;;;;;;;;;5.70;80.70;;;;;;5053109;28;19938;-70
2021/01/29 11:11:35;;;;;;;;;;;5.80;79.40;;;;;;5053298;28;20003;-69
2021/01/29 11:14:05;;;;;;;;;;;5.80;78.60;;;;;;5052953;28;19951;-69
2021/01/29 11:16:36;;;;;;;;;;;5.80;79.30;;;;;;5053345;28;19925;-69
2021/01/29 11:19:03;;;;;;;;;;;5.90;79.90;;;;;;5052950;28;19925;-69
2021/01/29 11:21:36;;;;;;;;;;;5.80;79.10;;;;;;5053921;28;20029;-69
2021/01/29 11:24:07;;;;;;;;;;;5.90;78.90;;;;;;5053486;28;20348;-70
2021/01/29 11:26:36;;;;;;;;;;;5.80;78.50;;;;;;5053921;28;20074;-69
2021/01/29 11:29:07;;;;;;;;;;;5.70;78.30;;;;;;5053473;28;20008;-70
2021/01/29 11:31:39;;;;;;;;;;;5.70;78.50;;;;;;5053741;28;20016;-69
2021/01/29 11:34:06;;;;;;;;;;;5.70;78.10;;;;;;5053371;28;19928;-70
2021/01/29 11:36:35;;;;;;;;;;;5.70;78.20;;;;;;5053463;28;19932;-70
2021/01/29 11:39:10;;;;;;;;;;;5.70;78.40;;;;;;5053202;28;20007;-70
2021/01/29 11:41:46;;;;;;;;;;;5.70;78.00;;;;;;5053566;28;20410;-70
2021/01/29 11:44:17;;;;;;;;;;;5.70;77.50;;;;;;5053251;28;20074;-71
2021/01/29 11:46:48;;;;;;;;;;;5.60;77.60;;;;;;5053436;28;20007;-71
2021/01/29 11:49:16;;;;;;;;;;;5.60;77.50;;;;;;5052870;28;19941;-70
2021/01/29 11:51:46;;;;;;;;;;;5.50;77.30;;;;;;5053518;28;19996;-70
2021/01/29 11:54:15;;;;;;;;;;;5.50;77.00;;;;;;5053170;28;20415;-70
2021/01/29 11:56:45;;;;;;;;;;;5.50;76.80;;;;;;5053209;28;20012;-70
2021/01/29 11:59:15;;;;;;;;;;;5.50;76.80;;;;;;5052893;28;20024;-70
2021/01/29 12:01:45;;;;;;;;;;;5.50;76.10;;;;;;5053250;28;20359;-71
2021/01/29 12:04:22;;;;;;;;;;;5.60;76.60;;;;;;5052969;28;19932;-71
2021/01/29 12:06:51;;;;;;;;;;;5.60;76.70;;;;;;5053041;28;19924;-69
2021/01/29 12:09:20;;;;;;;;;;;5.80;76.90;;;;;;5052783;28;20011;-70
2021/01/29 12:11:50;;;;;;;;;;;5.70;76.80;;;;;;5053387;28;20015;-71
2021/01/29 12:14:19;;;;;;;;;;;5.80;77.10;;;;;;5052700;28;20007;-70
2021/01/29 12:16:46;;;;;;;;;;;5.70;77.40;;;;;;5053083;28;20008;-70
2021/01/29 12:19:26;;;;;;;;;;;5.80;78.00;;;;;;5052698;28;20012;-70
2021/01/29 12:21:55;;;;;;;;;;;5.80;77.60;;;;;;5053070;28;20330;-70
2021/01/29 12:24:28;;;;;;;;;;;5.80;77.60;;;;;;5052626;28;20031;-70
2021/01/29 12:26:59;;;;;;;;;;;5.90;77.20;;;;;;5053082;28;19924;-71
2021/01/29 12:29:30;;;;;;;;;;;5.80;77.10;;;;;;5052321;28;20375;-71
2021/01/29 12:32:05;;;;;;;;;;;5.90;77.10;;;;;;5052865;28;19928;-70
2021/01/29 12:34:32;;;;;;;;;;;5.90;77.80;;;;;;5052542;28;20054;-71
2021/01/29 12:37:01;;;;;;;;;;;5.90;77.80;;;;;;5052928;28;19939;-71
2021/01/29 12:39:31;;;;;;;;;;;5.90;76.80;;;;;;5052341;28;19940;-71
2021/01/29 12:42:03;;;;;;;;;;;6.00;77.60;;;;;;5052649;28;20007;-71
2021/01/29 12:44:44;;;;;;;;;;;6.00;76.50;;;;;;5052420;28;20347;-71
2021/01/29 12:47:15;;;;;;;;;;;5.90;74.80;;;;;;5050553;28;19925;-70
2021/01/29 12:49:46;;;;;;;;;;;5.90;75.00;;;;;;5054320;28;20012;-70
2021/01/29 12:52:15;;;;;;;;;;;5.90;73.40;;;;;;5056356;28;20007;-70
2021/01/29 12:54:45;;;;;;;;;;;5.80;73.10;;;;;;5056918;28;20019;-70
2021/01/29 12:57:14;;;;;;;;;;;5.80;74.80;;;;;;5056265;28;20015;-70
2021/01/29 12:59:45;;;;;;;;;;;5.80;75.10;;;;;;5056581;28;19929;-70
2021/01/29 13:02:18;;;;;;;;;;;5.80;75.60;;;;;;5056165;28;20002;-70
2021/01/29 13:04:47;;;;;;;;;;;5.80;75.10;;;;;;5056236;28;20296;-70
2021/01/29 13:07:16;;;;;;;;;;;5.80;74.40;;;;;;5055879;28;20343;-70
2021/01/29 13:09:53;;;;;;;;;;;5.80;74.10;;;;;;5056531;28;19947;-70
2021/01/29 13:12:31;;;;;;;;;;;5.80;75.00;;;;;;5055934;28;20373;-70
2021/01/29 13:15:03;;;;;;;;;;;5.90;75.60;;;;;;5056390;28;20011;-71
2021/01/29 13:17:31;;;;;;;;;;;5.80;76.60;;;;;;5055743;28;20054;-70
2021/01/29 13:19:58;;;;;;;;;;;5.80;76.90;;;;;;5056089;28;19925;-71
2021/01/29 13:22:31;;;;;;;;;;;5.80;77.00;;;;;;5055746;28;20371;-70
2021/01/29 13:25:01;;;;;;;;;;;5.80;76.60;;;;;;5056356;28;20070;-70
2021/01/29 13:27:32;;;;;;;;;;;5.80;75.90;;;;;;5055784;28;19924;-71
2021/01/29 13:30:12;;;;;;;;;;;5.80;76.20;;;;;;5056115;28;19931;-70
2021/01/29 13:32:38;;;;;;;;;;;5.90;76.50;;;;;;5056069;28;19966;-70
2021/01/29 13:35:05;;;;;;;;;;;5.80;75.10;;;;;;5056094;28;19947;-70
2021/01/29 13:37:31;;;;;;;;;;;5.80;74.70;;;;;;5055510;28;20007;-71
2021/01/29 13:40:05;;;;;;;;;;;5.80;75.00;;;;;;5066689;28;19931;-70
2021/01/29 13:42:34;;;;;;;;;;;5.80;75.40;;;;;;5062980;28;19931;-70
2021/01/29 13:45:09;;;;;;;;;;;5.80;75.80;;;;;;5059866;28;20019;-70
2021/01/29 13:47:37;;;;;;;;;;;5.80;76.00;;;;;;5053405;28;19933;-71
2021/01/29 13:50:19;;;;;;;;;;;5.90;77.60;;;;;;5057629;28;20381;-71
2021/01/29 13:52:49;;;;;;;;;;;5.90;78.50;;;;;;5056090;28;19956;-71
2021/01/29 13:55:25;;;;;;;;;;;5.80;79.70;;;;;;5067521;28;19928;-71
2021/01/29 13:57:54;;;;;;;;;;;5.80;80.20;;;;;;5066097;28;19974;-70
2021/01/29 14:00:24;;;;;;;;;;;5.80;80.70;;;;;;5054798;28;20023;-71
2021/01/29 14:02:54;;;;;;;;;;;5.80;80.70;;;;;;5064621;28;19951;-71
2021/01/29 14:05:22;;;;;;;;;;;5.80;80.70;;;;;;5058503;28;20017;-71
2021/01/29 14:07:49;;;;;;;;;;;5.70;80.30;;;;;;5082709;28;20325;-71
2021/01/29 14:10:17;;;;;;;;;;;5.80;80.20;;;;;;5059057;28;20526;-70
2021/01/29 14:12:52;;;;;;;;;;;5.70;79.50;;;;;;5062207;28;20011;-70
2021/01/29 14:15:24;;;;;;;;;;;5.60;79.20;;;;;;5072935;28;20010;-70
2021/01/29 14:17:54;;;;;;;;;;;5.60;79.30;;;;;;5061038;28;19929;-71
2021/01/29 14:20:24;;;;;;;;;;;5.50;79.70;;;;;;5061863;28;20007;-71
2021/01/29 14:22:53;;;;;;;;;;;5.60;80.20;;;;;;5062640;28;20073;-71
2021/01/29 14:25:28;;;;;;;;;;;5.60;80.20;;;;;;5069474;28;20011;-71
2021/01/29 14:28:00;;;;;;;;;;;5.50;78.90;;;;;;5071054;28;20868;-70
2021/01/29 14:30:32;;;;;;;;;;;5.50;78.30;;;;;;5066962;28;19932;-70
2021/01/29 14:33:04;;;;;;;;;;;5.50;78.60;;;;;;5074365;28;20011;-71
2021/01/29 14:35:35;;;;;;;;;;;5.50;78.20;;;;;;5061715;28;20436;-70
2021/01/29 14:38:11;;;;;;;;;;;5.50;78.20;;;;;;5069746;28;19967;-71
2021/01/29 14:40:52;;;;;;;;;;;5.60;78.30;;;;;;5055377;28;19925;-70
2021/01/29 14:43:27;;;;;;;;;;;5.60;78.60;;;;;;5054212;28;19925;-69
2021/01/29 14:45:57;;;;;;;;;;;5.60;77.80;;;;;;5057719;28;20295;-69
2021/01/29 14:48:34;;;;;;;;;;;5.60;77.60;;;;;;5063044;28;19932;-69
2021/01/29 14:51:08;;;;;;;;;;;5.60;77.60;;;;;;5056841;28;19978;-69
2021/01/29 14:53:40;;;;;;;;;;;5.60;78.40;;;;;;5074662;28;19946;-70
2021/01/29 14:56:09;;;;;;;;;;;5.60;78.60;;;;;;5072380;28;20027;-70
2021/01/29 14:58:37;;;;;;;;;;;5.60;78.90;;;;;;5074424;28;20472;-70
2021/01/29 15:01:06;;;;;;;;;;;5.70;78.90;;;;;;5070201;28;20019;-70